createdAt,value
2023-05-19T00:01:02.254Z,5.58
2023-05-19T00:02:24.651Z,5.12
2023-05-19T00:03:53.326Z,5.36
2023-05-19T00:06:31.362Z,4.46
2023-05-19T00:07:53.718Z,5.84
2023-05-19T00:09:16.005Z,4.92
2023-05-19T00:10:38.357Z,5.64
2023-05-19T00:12:00.362Z,5.56
2023-05-19T00:13:22.530Z,4.99
2023-05-19T00:14:45.409Z,4.35
2023-05-19T00:16:08.312Z,4.24
2023-05-19T00:17:29.610Z,4.36
2023-05-19T00:18:51.290Z,4.43
2023-05-19T00:20:15.326Z,5.07
2023-05-19T00:21:37.458Z,4.99
2023-05-19T00:22:59.554Z,3.63
2023-05-19T00:24:21.673Z,4.38
2023-05-19T00:25:43.185Z,4.04
2023-05-19T00:27:05.232Z,4.92
2023-05-19T00:28:27.711Z,4.81
2023-05-19T00:29:49.239Z,5.14
2023-05-19T00:31:10.672Z,4.08
2023-05-19T00:32:32.343Z,5.22
2023-05-19T00:33:54.340Z,5.03
2023-05-19T00:35:16.881Z,4.83
2023-05-19T00:36:38.864Z,4.17
2023-05-19T00:38:00.478Z,5.51
2023-05-19T00:39:21.767Z,6.21
2023-05-19T00:40:43.759Z,4.12
2023-05-19T00:42:05.910Z,4.90
2023-05-19T00:43:27.954Z,4.25
2023-05-19T00:44:50.362Z,4.82
2023-05-19T00:46:13.331Z,4.34
2023-05-19T00:47:35.168Z,5.90
2023-05-19T00:48:57.211Z,6.96
2023-05-19T00:50:19.460Z,8.03
2023-05-19T00:51:41.151Z,5.86
2023-05-19T00:53:02.532Z,6.32
2023-05-19T00:54:24.458Z,6.19
2023-05-19T00:55:45.919Z,4.76
2023-05-19T00:57:07.714Z,5.26
2023-05-19T00:58:29.336Z,4.77
2023-05-19T00:59:51.630Z,3.81
2023-05-19T01:01:13.659Z,4.70
2023-05-19T01:02:36.799Z,4.27
2023-05-19T01:05:19.582Z,3.89
2023-05-19T01:06:41.624Z,3.71
2023-05-19T01:08:02.791Z,3.76
2023-05-19T01:09:24.487Z,3.73
2023-05-19T01:10:46.653Z,4.48
2023-05-19T01:12:08.613Z,4.88
2023-05-19T01:13:30.357Z,3.64
2023-05-19T01:14:52.228Z,3.62
2023-05-19T01:16:21.674Z,3.65
2023-05-19T01:17:55.512Z,3.31
2023-05-19T01:19:21.384Z,4.07
2023-05-19T01:20:45.133Z,4.42
2023-05-19T01:22:31.856Z,3.68
2023-05-19T01:25:26.634Z,3.29
2023-05-19T01:27:09.102Z,3.92
2023-05-19T01:28:45.832Z,3.43
2023-05-19T01:31:28.614Z,3.17
2023-05-19T01:32:50.781Z,4.21
2023-05-19T01:34:12.657Z,4.17
2023-05-19T01:35:35.316Z,3.79
2023-05-19T01:36:56.929Z,3.82
2023-05-19T01:38:19.228Z,3.78
2023-05-19T01:39:44.069Z,3.97
2023-05-19T01:41:05.915Z,3.59
2023-05-19T01:42:27.650Z,3.61
2023-05-19T01:43:49.720Z,3.63
2023-05-19T01:45:12.225Z,3.99
2023-05-19T01:46:33.567Z,3.88
2023-05-19T01:47:57.648Z,3.62
2023-05-19T01:49:20.052Z,3.33
2023-05-19T01:50:41.317Z,3.60
2023-05-19T01:52:03.138Z,3.83
2023-05-19T01:53:26.442Z,3.74
2023-05-19T01:54:47.782Z,3.86
2023-05-19T01:56:09.545Z,3.49
2023-05-19T01:57:38.265Z,4.17
2023-05-19T01:59:02.570Z,4.40
2023-05-19T02:00:43.982Z,3.96
2023-05-19T02:02:09.185Z,4.45
2023-05-19T02:04:09.143Z,4.34
2023-05-19T02:06:04.418Z,3.82
2023-05-19T02:07:48.218Z,3.36
2023-05-19T02:09:33.470Z,3.77
2023-05-19T02:11:05.280Z,4.27
2023-05-19T02:12:32.583Z,3.96
2023-05-19T02:13:56.319Z,3.90
2023-05-19T02:15:20.816Z,3.51
2023-05-19T02:17:58.232Z,3.36
2023-05-19T02:19:24.433Z,4.14
2023-05-19T02:20:47.942Z,4.08
2023-05-19T02:22:10.261Z,4.83
2023-05-19T02:23:32.257Z,4.37
2023-05-19T02:24:53.866Z,4.02
2023-05-19T02:26:15.384Z,4.13
2023-05-19T02:27:38.521Z,3.12
2023-05-19T02:29:00.029Z,4.11
2023-05-19T02:30:21.467Z,4.48
2023-05-19T02:31:43.629Z,3.81
2023-05-19T02:33:07.200Z,3.50
2023-05-19T02:34:29.877Z,3.94
2023-05-19T02:35:51.801Z,2.95
2023-05-19T02:37:16.975Z,2.59
2023-05-19T02:38:38.236Z,4.22
2023-05-19T02:40:00.260Z,3.97
2023-05-19T02:41:22.743Z,4.81
2023-05-19T02:42:44.312Z,4.11
2023-05-19T02:44:06.314Z,3.73
2023-05-19T02:45:28.426Z,2.74
2023-05-19T02:46:50.704Z,3.56
2023-05-19T02:48:13.209Z,3.74
2023-05-19T02:49:34.337Z,3.61
2023-05-19T02:50:56.280Z,3.85
2023-05-19T02:52:18.486Z,3.71
2023-05-19T02:53:40.106Z,3.82
2023-05-19T02:55:01.951Z,3.62
2023-05-19T02:56:24.029Z,3.82
2023-05-19T02:57:45.536Z,3.89
2023-05-19T02:59:08.087Z,4.79
2023-05-19T03:00:30.817Z,5.70
2023-05-19T03:01:58.820Z,3.33
2023-05-19T03:03:22.452Z,4.63
2023-05-19T03:04:44.244Z,5.06
2023-05-19T03:06:05.736Z,4.98
2023-05-19T03:07:27.284Z,3.81
2023-05-19T03:08:49.430Z,3.77
2023-05-19T03:10:15.046Z,3.59
2023-05-19T03:11:36.570Z,3.07
2023-05-19T03:12:58.661Z,4.23
2023-05-19T03:14:20.200Z,4.42
2023-05-19T03:15:41.365Z,5.54
2023-05-19T03:17:04.392Z,4.62
2023-05-19T03:18:26.833Z,3.57
2023-05-19T03:19:48.700Z,4.91
2023-05-19T03:21:11.172Z,4.35
2023-05-19T03:22:33.530Z,3.44
2023-05-19T03:23:55.645Z,3.68
2023-05-19T03:25:20.244Z,5.03
2023-05-19T03:26:42.629Z,4.36
2023-05-19T03:28:04.568Z,2.87
2023-05-19T03:29:25.963Z,3.71
2023-05-19T03:30:47.774Z,3.66
2023-05-19T03:32:09.633Z,4.37
2023-05-19T03:33:31.577Z,3.91
2023-05-19T03:34:53.227Z,5.18
2023-05-19T03:36:15.561Z,4.58
2023-05-19T03:37:37.891Z,3.44
2023-05-19T03:38:59.463Z,3.61
2023-05-19T03:40:21.689Z,3.86
2023-05-19T03:41:43.880Z,4.44
2023-05-19T03:43:05.789Z,3.97
2023-05-19T03:44:28.195Z,4.68
2023-05-19T03:45:49.688Z,3.02
2023-05-19T03:47:11.758Z,3.11
2023-05-19T03:48:33.623Z,4.04
2023-05-19T03:49:55.619Z,3.61
2023-05-19T03:51:17.912Z,3.00
2023-05-19T03:52:40.302Z,3.73
2023-05-19T03:54:02.401Z,4.13
2023-05-19T03:55:24.871Z,4.63
2023-05-19T03:56:46.925Z,3.46
2023-05-19T03:58:08.970Z,3.65
2023-05-19T03:59:30.835Z,2.34
2023-05-19T04:00:52.391Z,4.09
2023-05-19T04:02:14.427Z,3.57
2023-05-19T04:03:37.496Z,5.45
2023-05-19T04:04:59.861Z,5.05
2023-05-19T04:06:21.480Z,3.14
2023-05-19T04:07:43.648Z,3.06
2023-05-19T04:09:13.926Z,3.89
2023-05-19T04:10:36.074Z,4.11
2023-05-19T04:11:57.310Z,5.30
2023-05-19T04:13:19.739Z,4.26
2023-05-19T04:14:41.494Z,3.83
2023-05-19T04:16:03.160Z,3.16
2023-05-19T04:17:25.099Z,3.22
2023-05-19T04:18:47.754Z,3.46
2023-05-19T04:21:31.819Z,3.81
2023-05-19T04:22:54.227Z,4.29
2023-05-19T04:24:15.986Z,2.83
2023-05-19T04:25:38.036Z,3.73
2023-05-19T04:26:59.372Z,5.78
2023-05-19T04:28:22.078Z,3.74
2023-05-19T04:29:43.635Z,4.26
2023-05-19T04:31:05.190Z,3.53
2023-05-19T04:32:27.172Z,3.32
2023-05-19T04:33:48.875Z,3.51
2023-05-19T04:35:12.617Z,3.87
2023-05-19T04:36:34.821Z,4.42
2023-05-19T04:39:13.525Z,4.05
2023-05-19T04:40:35.238Z,3.81
2023-05-19T04:41:57.657Z,4.12
2023-05-19T04:43:20.136Z,3.54
2023-05-19T04:44:41.803Z,4.38
2023-05-19T04:46:03.415Z,2.63
2023-05-19T04:47:25.398Z,4.31
2023-05-19T04:48:47.756Z,5.51
2023-05-19T04:50:11.978Z,3.94
2023-05-19T04:51:34.102Z,3.39
2023-05-19T04:52:56.392Z,5.34
2023-05-19T04:54:18.406Z,3.23
2023-05-19T04:55:40.563Z,3.72
2023-05-19T04:58:25.242Z,3.08
2023-05-19T04:59:46.663Z,4.27
2023-05-19T05:01:08.691Z,3.99
2023-05-19T05:02:30.940Z,5.43
2023-05-19T05:03:53.278Z,4.61
2023-05-19T05:05:14.835Z,5.41
2023-05-19T05:06:36.594Z,6.58
2023-05-19T05:07:57.935Z,3.77
2023-05-19T05:09:20.424Z,3.42
2023-05-19T05:10:42.308Z,6.02
2023-05-19T05:12:05.735Z,2.84
2023-05-19T05:13:27.380Z,3.65
2023-05-19T05:14:50.166Z,4.26
2023-05-19T05:17:24.631Z,4.03
2023-05-19T05:18:47.313Z,3.53
2023-05-19T05:21:23.148Z,3.95
2023-05-19T05:22:45.439Z,2.99
2023-05-19T05:24:08.790Z,3.36
2023-05-19T05:25:32.131Z,3.68
2023-05-19T05:26:55.482Z,4.24
2023-05-19T05:28:18.759Z,4.08
2023-05-19T05:29:40.918Z,3.71
2023-05-19T05:31:03.373Z,3.77
2023-05-19T05:32:25.303Z,3.56
2023-05-19T05:33:48.779Z,3.78
2023-05-19T05:35:11.453Z,4.52
2023-05-19T05:36:33.339Z,3.47
2023-05-19T05:37:55.301Z,5.31
2023-05-19T05:39:18.739Z,4.94
2023-05-19T05:40:40.462Z,4.51
2023-05-19T05:42:02.792Z,5.23
2023-05-19T05:43:24.054Z,4.46
2023-05-19T05:44:46.089Z,5.25
2023-05-19T05:46:08.450Z,7.59
2023-05-19T05:47:32.416Z,4.64
2023-05-19T05:48:54.450Z,5.86
2023-05-19T05:50:17.666Z,5.04
2023-05-19T05:51:40.667Z,5.98
2023-05-19T05:53:02.769Z,5.84
2023-05-19T05:54:25.072Z,5.66
2023-05-19T05:55:47.576Z,4.34
2023-05-19T05:57:10.394Z,5.67
2023-05-19T05:59:54.015Z,4.94
2023-05-19T06:01:15.846Z,5.61
2023-05-19T06:02:38.097Z,4.97
2023-05-19T06:04:00.168Z,4.39
2023-05-19T06:05:22.203Z,5.08
2023-05-19T06:06:43.669Z,4.92
2023-05-19T06:08:05.976Z,7.99
2023-05-19T06:09:28.144Z,5.62
2023-05-19T06:10:50.058Z,5.59
2023-05-19T06:12:11.952Z,5.95
2023-05-19T06:14:45.772Z,6.37
2023-05-19T06:16:07.772Z,6.08
2023-05-19T06:17:30.065Z,6.35
2023-05-19T06:18:53.275Z,7.93
2023-05-19T06:20:17.108Z,7.93
2023-05-19T06:21:39.481Z,5.71
2023-05-19T06:23:00.678Z,4.17
2023-05-19T06:24:23.270Z,5.69
2023-05-19T06:25:45.097Z,7.51
2023-05-19T06:27:07.208Z,5.04
2023-05-19T06:28:28.316Z,4.92
2023-05-19T06:29:50.255Z,5.57
2023-05-19T06:31:11.900Z,6.48
2023-05-19T06:32:33.838Z,5.40
2023-05-19T06:33:55.985Z,5.14
2023-05-19T06:35:18.076Z,4.66
2023-05-19T06:36:39.469Z,4.24
2023-05-19T06:38:02.606Z,6.43
2023-05-19T06:39:31.797Z,4.68
2023-05-19T06:40:53.631Z,5.99
2023-05-19T06:42:15.466Z,5.11
2023-05-19T06:43:37.375Z,5.92
2023-05-19T06:45:00.063Z,5.98
2023-05-19T06:47:32.466Z,12.65
2023-05-19T06:48:54.784Z,5.53
2023-05-19T06:50:18.349Z,8.36
2023-05-19T06:51:40.480Z,10.79
2023-05-19T06:53:03.668Z,4.96
2023-05-19T06:54:25.477Z,8.43
2023-05-19T06:55:58.179Z,4.87
2023-05-19T06:57:11.898Z,6.75
2023-05-19T06:58:33.535Z,8.54
2023-05-19T06:59:57.030Z,5.77
2023-05-19T07:01:19.112Z,7.24
2023-05-19T07:02:41.557Z,7.89
2023-05-19T07:04:03.833Z,5.82
2023-05-19T07:05:25.569Z,6.79
2023-05-19T07:06:47.425Z,5.88
2023-05-19T07:08:09.113Z,6.41
2023-05-19T07:09:30.840Z,4.86
2023-05-19T07:10:52.886Z,6.97
2023-05-19T07:12:14.986Z,5.63
2023-05-19T07:13:37.002Z,6.44
2023-05-19T07:14:58.188Z,6.26
2023-05-19T07:16:21.352Z,6.22
2023-05-19T07:17:43.890Z,7.91
2023-05-19T07:19:05.727Z,4.99
2023-05-19T07:20:27.781Z,6.66
2023-05-19T07:21:49.496Z,7.49
2023-05-19T07:23:12.140Z,6.34
2023-05-19T07:24:34.274Z,10.14
2023-05-19T07:25:55.674Z,6.36
2023-05-19T07:27:17.499Z,6.51
2023-05-19T07:28:41.609Z,6.33
2023-05-19T07:30:04.047Z,8.41
2023-05-19T07:31:26.177Z,6.77
2023-05-19T07:32:48.546Z,5.64
2023-05-19T07:34:10.026Z,6.14
2023-05-19T07:35:32.618Z,6.52
2023-05-19T07:36:54.401Z,8.01
2023-05-19T07:38:16.537Z,5.97
2023-05-19T07:39:38.319Z,6.74
2023-05-19T07:41:01.552Z,5.57
2023-05-19T07:42:23.289Z,6.42
2023-05-19T07:43:45.418Z,11.99
2023-05-19T07:45:08.645Z,6.27
2023-05-19T07:46:31.172Z,6.97
2023-05-19T07:47:55.379Z,7.16
2023-05-19T07:49:16.952Z,8.77
2023-05-19T07:50:39.927Z,10.24
2023-05-19T07:52:01.527Z,7.83
2023-05-19T07:53:24.043Z,9.14
2023-05-19T07:54:47.190Z,7.02
2023-05-19T07:56:09.795Z,7.33
2023-05-19T07:57:31.888Z,9.09
2023-05-19T07:58:53.437Z,7.09
2023-05-19T08:00:17.628Z,7.78
2023-05-19T08:01:39.232Z,6.97
2023-05-19T08:03:02.012Z,7.11
2023-05-19T08:04:25.678Z,9.07
2023-05-19T08:05:47.490Z,6.69
2023-05-19T08:07:12.511Z,7.41
2023-05-19T08:08:34.191Z,7.41
2023-05-19T08:09:55.983Z,5.16
2023-05-19T08:11:19.473Z,5.66
2023-05-19T08:12:42.035Z,6.26
2023-05-19T08:14:04.551Z,5.63
2023-05-19T08:15:26.438Z,7.22
2023-05-19T08:16:49.098Z,9.71
2023-05-19T08:18:10.881Z,5.61
2023-05-19T08:19:33.386Z,5.86
2023-05-19T08:20:55.897Z,6.77
2023-05-19T08:22:18.170Z,6.95
2023-05-19T08:23:40.410Z,6.27
2023-05-19T08:25:02.800Z,6.25
2023-05-19T08:26:25.145Z,8.01
2023-05-19T08:27:47.116Z,8.77
2023-05-19T08:29:08.941Z,9.98
2023-05-19T08:30:30.959Z,6.49
2023-05-19T08:31:53.526Z,8.37
2023-05-19T08:33:15.179Z,5.38
2023-05-19T08:34:37.121Z,6.36
2023-05-19T08:35:59.510Z,9.63
2023-05-19T08:37:22.537Z,6.89
2023-05-19T08:38:44.408Z,6.99
2023-05-19T08:40:08.450Z,7.94
2023-05-19T08:41:30.115Z,6.77
2023-05-19T08:42:51.973Z,6.68
2023-05-19T08:44:13.653Z,6.26
2023-05-19T08:45:35.607Z,5.36
2023-05-19T08:46:57.978Z,6.64
2023-05-19T08:48:20.729Z,8.06
2023-05-19T08:49:46.772Z,7.47
2023-05-19T08:51:32.723Z,8.78
2023-05-19T08:53:18.153Z,10.87
2023-05-19T08:54:39.076Z,5.65
2023-05-19T08:57:18.261Z,6.28
2023-05-19T09:00:02.597Z,6.53
2023-05-19T09:01:24.705Z,6.11
2023-05-19T09:02:59.831Z,6.49
2023-05-19T09:04:13.804Z,5.81
2023-05-19T09:05:36.448Z,6.52
2023-05-19T09:08:20.327Z,6.23
2023-05-19T09:09:42.501Z,5.79
2023-05-19T09:11:04.236Z,6.70
2023-05-19T09:12:26.076Z,5.15
2023-05-19T09:13:48.503Z,5.07
2023-05-19T09:15:12.223Z,6.30
2023-05-19T09:16:33.718Z,5.44
2023-05-19T09:18:07.926Z,6.23
2023-05-19T09:19:29.241Z,5.50
2023-05-19T09:20:52.581Z,9.91
2023-05-19T09:22:19.507Z,5.51
2023-05-19T09:23:41.894Z,5.67
2023-05-19T09:25:04.250Z,8.84
2023-05-19T09:26:30.585Z,5.71
2023-05-19T09:27:54.252Z,4.71
2023-05-19T09:29:16.801Z,6.53
2023-05-19T09:30:37.961Z,5.97
2023-05-19T09:31:59.885Z,6.43
2023-05-19T09:33:22.372Z,5.74
2023-05-19T09:34:44.270Z,8.28
2023-05-19T09:36:07.615Z,6.58
2023-05-19T09:37:30.604Z,6.10
2023-05-19T09:38:52.215Z,5.98
2023-05-19T09:40:17.498Z,5.37
2023-05-19T09:41:39.196Z,5.91
2023-05-19T09:43:01.334Z,5.71
2023-05-19T09:44:24.079Z,4.86
2023-05-19T09:45:46.571Z,7.11
2023-05-19T09:47:09.735Z,5.99
2023-05-19T09:48:31.299Z,6.57
2023-05-19T09:49:53.281Z,5.12
2023-05-19T09:51:15.307Z,5.58
2023-05-19T09:52:42.628Z,6.48
2023-05-19T09:54:06.146Z,5.38
2023-05-19T09:55:30.437Z,7.56
2023-05-19T09:57:01.439Z,6.67
2023-05-19T09:58:24.010Z,5.53
2023-05-19T10:01:09.415Z,5.52
2023-05-19T10:02:31.604Z,6.00
2023-05-19T10:03:53.535Z,6.73
2023-05-19T10:06:27.459Z,5.77
2023-05-19T10:07:50.488Z,7.11
2023-05-19T10:09:12.350Z,9.64
2023-05-19T10:11:47.823Z,5.21
2023-05-19T10:13:11.253Z,7.17
2023-05-19T10:14:33.202Z,6.56
2023-05-19T10:15:59.003Z,5.87
2023-05-19T10:17:19.401Z,6.85
2023-05-19T10:18:41.472Z,7.74
2023-05-19T10:20:04.528Z,5.13
2023-05-19T10:21:26.751Z,6.33
2023-05-19T10:22:48.685Z,5.45
2023-05-19T10:24:11.554Z,9.93
2023-05-19T10:25:34.430Z,6.19
2023-05-19T10:27:05.266Z,7.74
2023-05-19T10:28:31.450Z,6.76
2023-05-19T10:29:52.711Z,6.77
2023-05-19T10:31:17.872Z,4.94
2023-05-19T10:32:42.723Z,4.66
2023-05-19T10:36:13.708Z,5.06
2023-05-19T10:39:10.368Z,5.75
2023-05-19T10:40:42.209Z,6.44
2023-05-19T10:42:07.731Z,4.67
2023-05-19T10:43:38.905Z,5.51
2023-05-19T10:45:22.933Z,5.86
2023-05-19T10:46:45.665Z,5.89
2023-05-19T10:48:16.865Z,7.83
2023-05-19T10:49:39.078Z,5.32
2023-05-19T10:51:01.324Z,4.61
2023-05-19T10:52:23.180Z,6.53
2023-05-19T10:53:45.785Z,7.37
2023-05-19T10:56:32.572Z,5.69
2023-05-19T10:57:55.086Z,5.39
2023-05-19T11:00:44.864Z,5.42
2023-05-19T11:02:08.478Z,5.49
2023-05-19T11:04:53.178Z,5.96
2023-05-19T11:06:28.813Z,5.77
2023-05-19T11:09:13.214Z,6.28
2023-05-19T11:10:36.557Z,5.78
2023-05-19T11:12:02.292Z,6.97
2023-05-19T11:13:28.446Z,8.62
2023-05-19T11:14:54.150Z,8.62
2023-05-19T11:16:19.494Z,6.07
2023-05-19T11:17:41.330Z,5.56
2023-05-19T11:20:25.404Z,6.31
2023-05-19T11:21:51.088Z,8.37
2023-05-19T11:23:16.231Z,4.67
2023-05-19T11:24:47.198Z,6.48
2023-05-19T11:26:09.921Z,4.89
2023-05-19T11:27:34.606Z,6.85
2023-05-19T11:28:56.915Z,6.84
2023-05-19T11:30:22.558Z,6.97
2023-05-19T11:31:44.061Z,6.41
2023-05-19T11:33:05.646Z,9.88
2023-05-19T11:34:27.461Z,7.04
2023-05-19T11:35:51.060Z,6.79
2023-05-19T11:37:12.909Z,5.91
2023-05-19T11:38:36.153Z,6.36
2023-05-19T11:39:58.383Z,7.02
2023-05-19T11:41:20.910Z,6.99
2023-05-19T11:42:42.974Z,7.24
2023-05-19T11:45:26.386Z,6.78
2023-05-19T11:46:48.883Z,6.63
2023-05-19T11:49:35.815Z,8.03
2023-05-19T11:50:59.425Z,9.02
2023-05-19T11:52:22.267Z,5.47
2023-05-19T11:53:43.864Z,5.35
2023-05-19T11:55:09.670Z,5.89
2023-05-19T11:56:35.056Z,6.27
2023-05-19T11:58:04.741Z,6.20
2023-05-19T12:00:52.214Z,8.92
2023-05-19T12:02:19.631Z,7.48
2023-05-19T12:03:42.328Z,6.80
2023-05-19T12:05:05.015Z,9.26
2023-05-19T12:06:28.152Z,7.66
2023-05-19T12:07:52.087Z,7.17
2023-05-19T12:10:35.695Z,7.52
2023-05-19T12:11:57.821Z,9.29
2023-05-19T12:13:19.461Z,6.25
2023-05-19T12:14:40.882Z,7.02
2023-05-19T12:16:05.449Z,7.66
2023-05-19T12:17:27.208Z,9.41
2023-05-19T12:18:49.359Z,6.25
2023-05-19T12:21:34.695Z,6.58
2023-05-19T12:22:56.766Z,8.54
2023-05-19T12:24:20.386Z,6.83
2023-05-19T12:25:42.106Z,6.82
2023-05-19T12:27:26.561Z,9.66
2023-05-19T12:28:49.704Z,7.64
2023-05-19T12:30:11.911Z,9.08
2023-05-19T12:31:34.320Z,5.81
2023-05-19T12:32:56.531Z,7.13
2023-05-19T12:34:18.543Z,6.88
2023-05-19T12:35:41.524Z,7.51
2023-05-19T12:37:04.351Z,7.66
2023-05-19T12:38:25.919Z,6.11
2023-05-19T12:39:51.054Z,6.78
2023-05-19T12:41:14.209Z,5.73
2023-05-19T12:42:36.056Z,7.43
2023-05-19T12:43:58.174Z,6.49
2023-05-19T12:45:20.772Z,6.57
2023-05-19T12:46:43.918Z,7.07
2023-05-19T12:48:08.927Z,7.71
2023-05-19T12:49:31.247Z,8.22
2023-05-19T12:52:15.643Z,6.61
2023-05-19T12:53:38.354Z,8.23
2023-05-19T12:55:02.432Z,7.13
2023-05-19T12:56:26.848Z,6.53
2023-05-19T12:57:50.540Z,8.07
2023-05-19T12:59:12.487Z,7.51
2023-05-19T13:00:41.817Z,6.99
2023-05-19T13:03:16.655Z,10.38
2023-05-19T13:04:38.810Z,8.99
2023-05-19T13:06:00.825Z,7.12
2023-05-19T13:08:44.430Z,8.84
2023-05-19T13:11:30.663Z,8.30
2023-05-19T13:12:53.740Z,8.11
2023-05-19T13:14:15.465Z,7.03
2023-05-19T13:15:44.054Z,8.77
2023-05-19T13:17:06.546Z,9.39
2023-05-19T13:18:29.029Z,7.88
2023-05-19T13:19:50.915Z,8.05
2023-05-19T13:21:13.019Z,6.85
2023-05-19T13:22:37.447Z,6.83
2023-05-19T13:23:58.904Z,6.90
2023-05-19T13:25:20.406Z,6.48
2023-05-19T13:26:44.196Z,7.29
2023-05-19T13:28:06.261Z,11.27
2023-05-19T13:30:50.379Z,7.54
2023-05-19T13:33:33.857Z,7.48
2023-05-19T13:34:55.584Z,7.20
2023-05-19T13:36:18.174Z,8.00
2023-05-19T13:39:03.350Z,7.49
2023-05-19T13:40:25.865Z,8.76
2023-05-19T13:41:48.339Z,6.64
2023-05-19T13:43:10.440Z,8.82
2023-05-19T13:44:32.940Z,7.87
2023-05-19T13:45:54.181Z,7.36
2023-05-19T13:47:16.600Z,8.58
2023-05-19T13:48:39.356Z,10.79
2023-05-19T13:50:03.082Z,10.79
2023-05-19T13:51:25.071Z,7.16
2023-05-19T13:52:47.596Z,7.89
2023-05-19T13:54:09.181Z,8.92
2023-05-19T13:55:31.573Z,11.64
2023-05-19T13:56:52.700Z,7.43
2023-05-19T13:58:14.728Z,8.86
2023-05-19T13:59:40.877Z,10.65
2023-05-19T14:01:00.243Z,7.04
2023-05-19T14:02:22.938Z,9.06
2023-05-19T14:03:45.134Z,8.12
2023-05-19T14:05:08.268Z,9.07
2023-05-19T14:06:29.811Z,9.98
2023-05-19T14:07:51.451Z,10.38
2023-05-19T14:09:12.954Z,8.92
2023-05-19T14:10:35.502Z,11.26
2023-05-19T14:11:57.248Z,9.42
2023-05-19T14:13:31.997Z,7.66
2023-05-19T14:14:42.809Z,7.88
2023-05-19T14:16:07.000Z,9.31
2023-05-19T14:18:39.169Z,7.85
2023-05-19T14:20:01.361Z,10.42
2023-05-19T14:21:24.723Z,9.54
2023-05-19T14:22:48.075Z,10.88
2023-05-19T14:24:09.770Z,7.69
2023-05-19T14:25:31.881Z,9.81
2023-05-19T14:28:16.410Z,8.47
2023-05-19T14:29:39.973Z,9.12
2023-05-19T14:31:01.952Z,11.59
2023-05-19T14:32:25.942Z,9.58
2023-05-19T14:33:48.407Z,9.98
2023-05-19T14:35:11.536Z,10.84
2023-05-19T14:36:34.302Z,9.59
2023-05-19T14:37:55.846Z,8.30
2023-05-19T14:39:17.554Z,10.43
2023-05-19T14:40:39.961Z,11.66
2023-05-19T14:43:23.194Z,11.54
2023-05-19T14:44:45.101Z,11.60
2023-05-19T14:47:29.597Z,10.73
2023-05-19T14:48:51.385Z,11.24
2023-05-19T14:50:16.534Z,10.29
2023-05-19T14:51:38.795Z,12.56
2023-05-19T14:53:00.554Z,10.19
2023-05-19T14:54:22.180Z,11.73
2023-05-19T14:55:44.431Z,11.77
2023-05-19T14:57:08.583Z,11.66
2023-05-19T14:58:30.438Z,10.63
2023-05-19T14:59:53.761Z,13.21
2023-05-19T15:01:15.730Z,9.99
2023-05-19T15:02:38.328Z,10.33
2023-05-19T15:04:00.894Z,12.83
2023-05-19T15:05:25.520Z,10.25
2023-05-19T15:06:52.331Z,10.70
2023-05-19T15:08:10.302Z,10.07
2023-05-19T15:09:31.908Z,11.16
2023-05-19T15:10:54.221Z,9.83
2023-05-19T15:12:16.274Z,11.30
2023-05-19T15:15:01.312Z,9.01
2023-05-19T15:16:22.956Z,11.32
2023-05-19T15:17:44.719Z,16.68
2023-05-19T15:19:08.078Z,14.53
2023-05-19T15:20:30.008Z,12.61
2023-05-19T15:21:52.138Z,16.50
2023-05-19T15:23:15.701Z,14.69
2023-05-19T15:24:37.048Z,12.07
2023-05-19T15:25:59.443Z,11.19
2023-05-19T15:27:21.010Z,12.03
2023-05-19T15:28:43.102Z,10.83
2023-05-19T15:30:07.509Z,11.98
2023-05-19T15:31:29.953Z,12.13
2023-05-19T15:32:51.781Z,11.53
2023-05-19T15:34:14.280Z,12.96
2023-05-19T15:35:36.344Z,12.38
2023-05-19T15:36:58.276Z,10.77
2023-05-19T15:38:20.778Z,11.35
2023-05-19T15:39:43.313Z,13.25
2023-05-19T15:41:07.065Z,15.04
2023-05-19T15:42:28.422Z,12.28
2023-05-19T15:43:50.239Z,11.78
2023-05-19T15:45:13.064Z,12.12
2023-05-19T15:46:34.737Z,14.22
2023-05-19T15:47:56.372Z,12.40
2023-05-19T15:49:18.653Z,12.21
2023-05-19T15:50:40.922Z,13.23
2023-05-19T15:52:03.690Z,12.14
2023-05-19T15:53:25.643Z,12.24
2023-05-19T15:54:48.033Z,16.25
2023-05-19T15:56:10.691Z,14.41
2023-05-19T15:57:32.319Z,12.50
2023-05-19T15:58:53.604Z,12.03
2023-05-19T16:00:16.466Z,14.92
2023-05-19T16:01:38.178Z,14.67
2023-05-19T16:03:02.524Z,17.16
2023-05-19T16:04:24.630Z,15.74
2023-05-19T16:05:46.706Z,14.47
2023-05-19T16:07:08.223Z,13.20
2023-05-19T16:08:29.388Z,11.87
2023-05-19T16:09:51.230Z,14.08
2023-05-19T16:11:13.600Z,13.88
2023-05-19T16:12:35.927Z,13.42
2023-05-19T16:13:58.990Z,13.38
2023-05-19T16:15:20.864Z,17.44
2023-05-19T16:16:44.602Z,11.89
2023-05-19T16:18:07.702Z,11.96
2023-05-19T16:19:29.499Z,9.43
2023-05-19T16:20:51.728Z,8.72
2023-05-19T16:22:14.097Z,10.52
2023-05-19T16:23:36.305Z,11.37
2023-05-19T16:24:58.568Z,10.84
2023-05-19T16:26:20.430Z,10.71
2023-05-19T16:27:41.978Z,13.03
2023-05-19T16:29:03.397Z,11.70
2023-05-19T16:30:25.737Z,17.28
2023-05-19T16:31:47.962Z,13.26
2023-05-19T16:33:09.967Z,9.61
2023-05-19T16:34:32.973Z,9.88
2023-05-19T16:35:56.167Z,8.99
2023-05-19T16:37:18.478Z,8.77
2023-05-19T16:38:40.570Z,9.54
2023-05-19T16:40:02.090Z,9.70
2023-05-19T16:41:23.756Z,10.08
2023-05-19T16:42:45.209Z,8.16
2023-05-19T16:44:06.742Z,11.78
2023-05-19T16:45:29.035Z,10.49
2023-05-19T16:46:50.183Z,11.98
2023-05-19T16:48:11.763Z,10.57
2023-05-19T16:49:33.047Z,8.79
2023-05-19T16:50:55.369Z,10.41
2023-05-19T16:52:16.981Z,11.99
2023-05-19T16:53:39.331Z,10.02
2023-05-19T16:56:23.568Z,16.31
2023-05-19T16:57:46.922Z,23.22
2023-05-19T17:00:31.044Z,20.22
2023-05-19T17:01:52.946Z,14.42
2023-05-19T17:03:14.325Z,12.23
2023-05-19T17:04:36.079Z,21.01
2023-05-19T17:05:58.352Z,16.65
2023-05-19T17:07:20.211Z,13.32
2023-05-19T17:08:42.172Z,16.20
2023-05-19T17:10:05.461Z,14.80
2023-05-19T17:11:28.553Z,15.36
2023-05-19T17:14:14.176Z,9.47
2023-05-19T17:16:59.885Z,12.70
2023-05-19T17:18:22.077Z,13.27
2023-05-19T17:19:43.937Z,14.35
2023-05-19T17:21:06.427Z,16.34
2023-05-19T17:22:29.997Z,12.35
2023-05-19T17:23:51.995Z,13.98
2023-05-19T17:25:14.080Z,14.73
2023-05-19T17:26:36.181Z,14.44
2023-05-19T17:27:58.126Z,16.00
2023-05-19T17:29:20.593Z,16.35
2023-05-19T17:30:42.168Z,19.01
2023-05-19T17:32:04.590Z,20.54
2023-05-19T17:33:25.861Z,20.76
2023-05-19T17:34:48.190Z,20.08
2023-05-19T17:36:10.628Z,21.96
2023-05-19T17:37:32.690Z,17.74
2023-05-19T17:38:55.117Z,18.21
2023-05-19T17:40:18.235Z,18.02
2023-05-19T17:41:39.848Z,14.59
2023-05-19T17:43:01.252Z,16.81
2023-05-19T17:44:23.302Z,16.68
2023-05-19T17:45:45.340Z,14.52
2023-05-19T17:47:06.868Z,13.54
2023-05-19T17:48:29.625Z,21.09
2023-05-19T17:49:52.019Z,14.28
2023-05-19T17:51:14.213Z,13.55
2023-05-19T17:52:36.505Z,17.77
2023-05-19T17:53:58.527Z,12.66
2023-05-19T17:55:20.878Z,16.45
2023-05-19T17:58:05.545Z,13.65
2023-05-19T17:59:28.370Z,12.18
2023-05-19T18:02:12.574Z,16.39
2023-05-19T18:03:36.481Z,13.24
2023-05-19T18:04:58.467Z,16.25
2023-05-19T18:06:20.879Z,11.86
2023-05-19T18:07:44.287Z,15.03
2023-05-19T18:09:08.347Z,16.04
2023-05-19T18:10:30.759Z,15.69
2023-05-19T18:11:51.963Z,16.53
2023-05-19T18:13:14.607Z,15.56
2023-05-19T18:14:36.117Z,17.23
2023-05-19T18:15:57.860Z,17.03
2023-05-19T18:17:19.731Z,14.69
2023-05-19T18:18:42.105Z,16.64
2023-05-19T18:20:05.164Z,16.51
2023-05-19T18:21:27.544Z,17.38
2023-05-19T18:22:49.174Z,13.77
2023-05-19T18:24:11.039Z,18.04
2023-05-19T18:25:32.966Z,22.11
2023-05-19T18:26:54.654Z,14.05
2023-05-19T18:28:16.441Z,16.92
2023-05-19T18:29:38.330Z,18.56
2023-05-19T18:31:04.232Z,18.74
2023-05-19T18:32:25.690Z,18.57
2023-05-19T18:33:47.608Z,21.72
2023-05-19T18:35:09.971Z,18.86
2023-05-19T18:36:31.716Z,17.26
2023-05-19T18:37:55.253Z,20.08
2023-05-19T18:39:17.050Z,20.51
2023-05-19T18:40:38.664Z,20.02
2023-05-19T18:42:01.042Z,19.40
2023-05-19T18:43:23.417Z,17.24
2023-05-19T18:44:45.193Z,13.61
2023-05-19T18:46:09.154Z,20.54
2023-05-19T18:47:31.964Z,18.54
2023-05-19T18:48:53.517Z,23.81
2023-05-19T18:50:17.604Z,21.84
2023-05-19T18:51:39.457Z,25.19
2023-05-19T18:53:00.603Z,23.86
2023-05-19T18:54:23.036Z,24.82
2023-05-19T18:55:45.499Z,26.00
2023-05-19T18:57:07.460Z,25.91
2023-05-19T18:58:29.028Z,24.07
2023-05-19T18:59:51.634Z,23.83
2023-05-19T19:01:13.251Z,24.12
2023-05-19T19:02:35.448Z,26.12
2023-05-19T19:03:57.391Z,17.79
2023-05-19T19:05:20.196Z,26.06
2023-05-19T19:06:43.843Z,19.31
2023-05-19T19:08:07.205Z,25.65
2023-05-19T19:10:51.283Z,23.07
2023-05-19T19:12:14.650Z,21.17
2023-05-19T19:13:38.088Z,18.86
2023-05-19T19:14:59.630Z,18.87
2023-05-19T19:16:21.777Z,20.82
2023-05-19T19:17:45.439Z,21.66
2023-05-19T19:19:06.996Z,21.36
2023-05-19T19:20:29.076Z,18.72
2023-05-19T19:21:51.017Z,16.94
2023-05-19T19:23:12.551Z,18.72